Time;durP1;ratioP1;P1;durP2;ratioP2;P2;SDS_P1;SDS_P2;PMS_P1;PMS_P2;Temp;Humidity;BMP_temperature;BMP_pressure;BME280_temperature;BME280_humidity;BME280_pressure;Samples;Min_cycle;Max_cycle;Signal;HPM_P1;HPM_P2
2023/09/13 00:01:16;;;;;;;6.40;2.50;;;;;;;23.64;94.68;100345.91;5043677;28;20052;-58
2023/09/13 00:03:48;;;;;;;5.00;2.70;;;;;;;23.55;94.13;100367.88;5066593;28;20044;-59
2023/09/13 00:06:21;;;;;;;7.00;2.70;;;;;;;23.58;92.87;100367.66;5057818;28;20044;-61
2023/09/13 00:08:51;;;;;;;5.53;2.80;;;;;;;23.72;90.76;100363.19;5068142;28;20371;-59
2023/09/13 00:11:22;;;;;;;4.73;2.70;;;;;;;23.84;90.24;100363.22;5057604;28;20049;-56
2023/09/13 00:13:53;;;;;;;7.70;2.23;;;;;;;23.95;88.15;100349.13;5058150;28;20131;-60
2023/09/13 00:16:24;;;;;;;4.77;2.20;;;;;;;24.14;88.15;100369.16;5057358;28;20055;-58
2023/09/13 00:18:55;;;;;;;8.30;2.10;;;;;;;24.27;87.81;100376.19;5067643;28;20078;-58
2023/09/13 00:21:27;;;;;;;4.20;2.50;;;;;;;24.31;84.84;100371.47;5057412;28;20043;-59
2023/09/13 00:23:58;;;;;;;5.00;2.30;;;;;;;24.24;82.54;100370.22;5067985;28;20367;-60
2023/09/13 00:26:29;;;;;;;6.27;2.37;;;;;;;24.29;82.46;100384.09;5056583;28;20040;-60
2023/09/13 00:28:59;;;;;;;5.90;2.63;;;;;;;24.09;82.70;100367.69;5067450;28;20064;-57
2023/09/13 00:31:30;;;;;;;5.23;2.13;;;;;;;24.07;83.98;100369.59;5051049;28;20055;-59
2023/09/13 00:34:00;;;;;;;4.67;2.50;;;;;;;23.89;81.75;100376.25;5047193;28;20055;-61
2023/09/13 00:36:32;;;;;;;8.40;2.67;;;;;;;23.78;81.15;100368.13;5036332;28;20047;-59
2023/09/13 00:39:04;;;;;;;6.83;2.63;;;;;;;23.95;81.80;100381.13;5042116;28;20048;-60
2023/09/13 00:41:35;;;;;;;6.00;2.20;;;;;;;24.29;82.05;100381.44;5049068;28;20458;-59
2023/09/13 00:44:06;;;;;;;7.60;2.60;;;;;;;24.43;78.69;100386.59;5048927;28;20083;-60
2023/09/13 00:46:37;;;;;;;3.63;2.40;;;;;;;24.70;80.23;100361.53;5056624;28;20097;-60
2023/09/13 00:49:08;;;;;;;7.33;2.13;;;;;;;24.78;80.31;100369.84;5036643;28;20044;-59
2023/09/13 00:51:41;;;;;;;4.53;2.30;;;;;;;24.73;78.52;100372.84;5046678;28;20037;-59
2023/09/13 00:54:11;;;;;;;5.77;2.20;;;;;;;24.52;75.63;100377.97;5036721;28;20457;-60
2023/09/13 00:56:42;;;;;;;3.53;1.93;;;;;;;24.41;77.47;100369.84;5046780;28;20468;-60
2023/09/13 00:59:13;;;;;;;5.77;2.60;;;;;;;24.45;80.42;100379.38;5051262;28;20055;-58
2023/09/13 01:01:44;;;;;;;6.73;2.17;;;;;;;24.42;81.07;100384.91;5070293;28;20079;-61
2023/09/13 01:04:15;;;;;;;6.10;2.00;;;;;;;24.36;81.59;100390.66;5059693;28;20055;-60
2023/09/13 01:06:48;;;;;;;5.80;2.23;;;;;;;24.39;82.16;100379.78;5073492;28;20108;-62
2023/09/13 01:09:19;;;;;;;3.93;2.40;;;;;;;24.59;80.86;100372.16;5062681;28;20100;-61
2023/09/13 01:11:52;;;;;;;9.03;2.30;;;;;;;24.61;75.95;100378.25;5071708;28;20059;-60
2023/09/13 01:14:23;;;;;;;4.90;1.80;;;;;;;24.53;73.92;100387.66;5061457;28;20486;-60
2023/09/13 01:17:00;;;;;;;9.27;2.47;;;;;;;24.60;72.86;100389.91;5071061;28;20150;-59
2023/09/13 01:19:54;;;;;;;3.33;2.13;;;;;;;24.63;71.64;100377.16;5063460;28;20055;-61
2023/09/13 01:22:57;;;;;;;6.00;1.90;;;;;;;24.70;70.17;100382.91;5062196;28;20047;-60
2023/09/13 01:25:50;;;;;;;6.70;2.40;;;;;;;24.86;71.47;100380.84;5061640;28;20146;-60
2023/09/13 01:28:36;;;;;;;8.07;2.50;;;;;;;24.85;68.19;100380.94;5071037;28;20142;-60
2023/09/13 01:31:09;;;;;;;6.87;1.97;;;;;;;24.81;64.71;100385.66;5061698;28;20143;-61
2023/09/13 01:33:44;;;;;;;4.97;1.90;;;;;;;24.70;63.39;100388.25;5070965;28;20051;-60
2023/09/13 01:36:26;;;;;;;5.13;1.80;;;;;;;24.59;62.63;100381.06;5060004;28;20135;-60
2023/09/13 01:39:04;;;;;;;5.57;2.07;;;;;;;24.39;60.32;100393.16;5069396;28;20060;-60
2023/09/13 01:41:43;;;;;;;6.10;1.73;;;;;;;24.41;58.73;100393.91;5070720;28;20856;-60
2023/09/13 01:44:18;;;;;;;4.57;2.30;;;;;;;24.38;58.20;100388.75;5060427;28;20058;-59
2023/09/13 01:46:51;;;;;;;6.63;1.73;;;;;;;24.49;56.88;100396.88;5070850;28;20055;-59
2023/09/13 01:49:23;;;;;;;8.10;2.10;;;;;;;24.67;57.96;100399.19;5061095;28;20063;-62
2023/09/13 01:51:55;;;;;;;6.53;1.50;;;;;;;24.75;53.67;100399.47;5071045;28;20474;-60
2023/09/13 01:54:27;;;;;;;5.20;1.70;;;;;;;24.71;53.39;100385.50;5060801;28;20052;-60
2023/09/13 01:57:00;;;;;;;4.27;1.60;;;;;;;24.71;55.81;100379.28;5070994;28;20126;-60
2023/09/13 01:59:35;;;;;;;5.03;1.73;;;;;;;24.65;56.42;100379.75;5062177;28;20036;-60
2023/09/13 02:02:10;;;;;;;4.40;2.10;;;;;;;24.57;58.52;100392.81;5060587;28;20488;-60
2023/09/13 02:04:42;;;;;;;7.13;1.57;;;;;;;24.59;58.86;100396.19;5068260;28;20135;-60
2023/09/13 02:07:16;;;;;;;4.23;2.03;;;;;;;24.75;59.50;100402.13;5061841;28;20048;-60
2023/09/13 02:09:49;;;;;;;4.10;1.77;;;;;;;25.03;58.30;100395.59;5070277;28;20051;-59
2023/09/13 02:12:21;;;;;;;3.97;1.63;;;;;;;25.18;56.61;100398.97;5061652;28;20082;-60
2023/09/13 02:14:55;;;;;;;4.97;2.20;;;;;;;25.03;52.94;100405.44;5070045;28;20108;-61
2023/09/13 02:17:27;;;;;;;4.90;2.10;;;;;;;24.71;56.04;100392.63;5060121;28;20051;-60
2023/09/13 02:20:00;;;;;;;3.57;1.77;;;;;;;24.60;53.76;100403.25;5070055;28;20147;-60
2023/09/13 02:22:32;;;;;;;2.67;1.40;;;;;;;24.76;52.82;100403.84;5059573;28;20056;-60
2023/09/13 02:25:04;;;;;;;3.37;1.90;;;;;;;24.86;50.93;100396.88;5063252;28;20174;-60
2023/09/13 02:27:37;;;;;;;3.20;1.60;;;;;;;25.15;54.06;100400.03;5070085;28;20239;-59
2023/09/13 02:30:12;;;;;;;5.20;1.80;;;;;;;25.27;52.81;100392.94;5058563;28;20055;-59
2023/09/13 02:32:44;;;;;;;5.30;1.93;;;;;;;25.10;52.16;100404.00;5068486;28;20035;-59
2023/09/13 02:35:16;;;;;;;3.67;1.67;;;;;;;24.98;52.42;100398.59;5058152;28;20474;-59
2023/09/13 02:37:48;;;;;;;6.83;2.20;;;;;;;24.80;53.08;100399.97;5070842;28;20143;-61
2023/09/13 02:40:20;;;;;;;5.00;2.00;;;;;;;24.66;52.54;100413.50;5060287;28;20044;-60
2023/09/13 02:42:53;;;;;;;5.37;1.90;;;;;;;24.60;52.72;100414.78;5071101;28;20413;-59
2023/09/13 02:45:29;;;;;;;3.87;2.27;;;;;;;24.54;53.42;100404.56;5059633;28;20051;-57
2023/09/13 02:48:01;;;;;;;5.80;1.90;;;;;;;24.46;52.17;100418.47;5070413;28;20081;-60
2023/09/13 02:50:33;;;;;;;5.20;1.67;;;;;;;24.29;53.08;100421.47;5059894;28;20514;-60
2023/09/13 02:53:06;;;;;;;3.60;1.57;;;;;;;24.14;53.57;100422.53;5059806;28;20554;-60
2023/09/13 02:55:39;;;;;;;4.17;1.40;;;;;;;24.05;54.08;100424.06;5069047;28;20054;-60
2023/09/13 02:58:11;;;;;;;3.40;1.30;;;;;;;24.00;55.76;100418.19;5060497;28;20048;-59
2023/09/13 03:00:46;;;;;;;2.43;1.30;;;;;;;23.95;54.79;100413.16;5069854;28;20065;-60
2023/09/13 03:03:18;;;;;;;2.83;1.33;;;;;;;23.96;52.53;100430.88;5060531;28;20126;-60
2023/09/13 03:05:51;;;;;;;2.50;1.20;;;;;;;24.13;52.35;100426.19;5071200;28;20127;-59
2023/09/13 03:08:23;;;;;;;2.87;1.40;;;;;;;24.33;52.54;100444.31;5058709;28;20979;-60
2023/09/13 03:10:55;;;;;;;2.37;1.30;;;;;;;24.43;51.00;100433.81;5069941;28;20466;-58
2023/09/13 03:13:27;;;;;;;2.20;1.20;;;;;;;24.45;50.67;100438.13;5058813;28;20461;-61
2023/09/13 03:16:02;;;;;;;4.77;1.50;;;;;;;24.53;49.71;100435.75;5071821;28;20139;-60
2023/09/13 03:18:34;;;;;;;2.07;1.17;;;;;;;24.60;48.30;100438.84;5060483;28;20055;-61
2023/09/13 03:21:10;;;;;;;4.03;1.00;;;;;;;24.53;47.21;100435.75;5059321;28;20039;-59
2023/09/13 03:23:44;;;;;;;3.70;1.47;;;;;;;24.40;46.65;100440.25;5068823;28;21112;-60
2023/09/13 03:26:18;;;;;;;2.70;1.20;;;;;;;24.23;48.48;100412.06;5060719;28;20046;-60
2023/09/13 03:28:51;;;;;;;4.90;1.47;;;;;;;24.40;46.19;100439.41;5069247;28;20366;-60
2023/09/13 03:31:27;;;;;;;3.63;0.97;;;;;;;24.34;48.50;100408.66;5060641;28;20099;-60
2023/09/13 03:34:00;;;;;;;2.77;1.00;;;;;;;24.63;46.68;100448.44;5068760;28;20174;-60
2023/09/13 03:36:33;;;;;;;2.77;1.20;;;;;;;24.61;46.58;100459.28;5056443;28;20048;-59
2023/09/13 03:39:05;;;;;;;2.00;1.10;;;;;;;24.32;45.82;100453.28;5061043;28;20052;-60
2023/09/13 03:41:37;;;;;;;2.53;1.10;;;;;;;24.08;47.97;100439.84;5069809;28;20093;-60
2023/09/13 03:44:10;;;;;;;4.27;1.27;;;;;;;23.99;48.50;100436.03;5058913;28;20095;-61
2023/09/13 03:46:43;;;;;;;1.90;1.13;;;;;;;24.03;49.75;100445.50;5070257;28;20131;-60
2023/09/13 03:49:19;;;;;;;2.27;0.93;;;;;;;24.15;50.23;100429.59;5079017;28;20046;-58
2023/09/13 03:51:51;;;;;;;2.30;1.50;;;;;;;24.20;50.13;100428.31;5077049;28;20040;-58
2023/09/13 03:54:23;;;;;;;2.73;1.17;;;;;;;24.42;51.26;100421.44;5072963;28;20112;-59
2023/09/13 03:56:55;;;;;;;2.47;1.50;;;;;;;24.49;46.65;100420.94;5078186;28;20036;-60
2023/09/13 03:59:28;;;;;;;2.00;1.20;;;;;;;24.37;47.51;100426.25;5078526;28;20105;-60
2023/09/13 04:02:03;;;;;;;2.53;0.80;;;;;;;24.28;49.68;100436.63;5078208;28;20062;-61
2023/09/13 04:04:36;;;;;;;1.93;1.00;;;;;;;24.11;48.52;100439.63;5067950;28;20044;-60
2023/09/13 04:07:09;;;;;;;1.40;0.80;;;;;;;23.88;47.06;100443.91;5077913;28;20044;-61
2023/09/13 04:09:42;;;;;;;4.73;1.10;;;;;;;23.87;47.60;100452.88;5076187;28;20547;-61
2023/09/13 04:12:14;;;;;;;3.10;1.00;;;;;;;23.82;47.26;100445.19;5059524;28;20055;-60
2023/09/13 04:14:46;;;;;;;2.97;0.90;;;;;;;23.76;49.09;100447.41;5069466;28;20051;-60
2023/09/13 04:17:20;;;;;;;1.87;0.80;;;;;;;23.79;48.96;100439.19;5058454;28;20052;-60
2023/09/13 04:19:53;;;;;;;3.30;1.10;;;;;;;23.83;49.72;100438.88;5069899;28;20129;-61
2023/09/13 04:22:26;;;;;;;1.53;0.87;;;;;;;23.63;50.07;100402.88;5060584;28;20463;-61
2023/09/13 04:24:57;;;;;;;3.83;0.93;;;;;;;23.82;50.07;100444.34;5069405;28;20039;-60
2023/09/13 04:27:30;;;;;;;4.43;0.87;;;;;;;23.80;49.83;100440.91;5057478;28;20109;-61
2023/09/13 04:30:04;;;;;;;3.40;1.10;;;;;;;23.81;49.53;100453.28;5068514;28;20555;-62
2023/09/13 04:32:38;;;;;;;4.43;1.23;;;;;;;23.81;49.91;100453.28;5072634;28;20056;-62
2023/09/13 04:35:13;;;;;;;5.67;0.87;;;;;;;23.64;48.65;100441.94;5060951;28;20102;-60
2023/09/13 04:37:50;;;;;;;5.00;1.10;;;;;;;23.64;49.14;100455.28;5071265;28;20430;-62
2023/09/13 04:40:21;;;;;;;0.93;0.70;;;;;;;;;;5061669;28;20058;-62
2023/09/13 04:42:57;;;;;;;1.40;0.80;;;;;;;23.57;48.48;100456.66;5072639;28;20048;-61
2023/09/13 04:45:30;;;;;;;2.70;0.90;;;;;;;23.54;47.67;100439.97;5062695;28;20083;-60
2023/09/13 04:48:04;;;;;;;1.47;0.60;;;;;;;23.49;44.43;100448.31;5073679;28;20040;-61
2023/09/13 04:50:36;;;;;;;4.13;1.40;;;;;;;23.39;47.14;100447.22;5062261;28;20438;-63
2023/09/13 04:53:08;;;;;;;4.80;1.03;;;;;;;23.27;45.79;100451.56;5059994;28;20174;-62
2023/09/13 04:55:42;;;;;;;3.40;0.97;;;;;;;23.12;44.27;100444.59;5072508;28;20526;-60
2023/09/13 04:58:13;;;;;;;3.80;0.80;;;;;;;22.70;46.74;100441.91;5060952;28;20305;-62
2023/09/13 05:00:45;;;;;;;2.63;1.10;;;;;;;22.60;47.36;100443.44;5073942;28;20059;-61
2023/09/13 05:03:17;;;;;;;5.47;1.20;;;;;;;22.63;47.88;100453.91;5060543;28;20418;-60
2023/09/13 05:05:47;;;;;;;2.50;1.23;;;;;;;22.62;47.69;100452.19;5072624;28;20056;-61
2023/09/13 05:08:18;;;;;;;7.47;1.10;;;;;;;22.59;48.70;100457.72;5062161;28;20040;-61
2023/09/13 05:10:51;;;;;;;1.97;0.80;;;;;;;22.58;50.15;100461.31;5073301;28;20072;-61
2023/09/13 05:13:22;;;;;;;3.27;1.00;;;;;;;22.46;48.66;100459.44;5063497;28;20079;-62
2023/09/13 05:15:53;;;;;;;3.43;1.30;;;;;;;22.39;50.15;100458.97;5070528;28;20519;-62
2023/09/13 05:18:25;;;;;;;3.83;1.10;;;;;;;22.50;49.98;100464.47;5063923;28;20049;-61
2023/09/13 05:20:56;;;;;;;2.33;0.77;;;;;;;22.72;49.63;100469.31;5073615;28;20063;-61
2023/09/13 05:23:26;;;;;;;4.50;0.90;;;;;;;22.43;49.11;100419.69;5062134;28;20051;-60
2023/09/13 05:25:57;;;;;;;2.80;0.90;;;;;;;22.67;49.94;100474.06;5071500;28;20059;-62
2023/09/13 05:28:31;;;;;;;5.87;2.13;;;;;;;22.81;50.91;100463.41;5060925;28;20591;-61
2023/09/13 05:31:02;;;;;;;14.83;2.20;;;;;;;22.61;49.64;100450.47;5074117;28;20500;-60
2023/09/13 05:33:35;;;;;;;5.20;2.13;;;;;;;22.42;48.61;100450.78;5058748;28;20047;-61
2023/09/13 05:36:09;;;;;;;5.03;2.30;;;;;;;22.38;50.38;100439.47;5061671;28;20117;-60
2023/09/13 05:38:39;;;;;;;4.53;0.93;;;;;;;22.32;48.66;100450.50;5072682;28;20177;-60
2023/09/13 05:41:11;;;;;;;3.67;1.33;;;;;;;22.25;50.06;100459.81;5060550;28;20459;-61
2023/09/13 05:43:43;;;;;;;1.87;1.17;;;;;;;22.12;49.71;100454.38;5071988;28;20147;-60
2023/09/13 05:46:14;;;;;;;4.67;2.17;;;;;;;22.20;52.42;100461.91;5060480;28;20035;-62
2023/09/13 05:48:46;;;;;;;2.60;1.27;;;;;;;21.88;52.05;100430.13;5072112;28;20098;-59
2023/09/13 05:51:19;;;;;;;4.30;1.10;;;;;;;21.93;52.99;100454.63;5061261;28;20056;-61
2023/09/13 05:53:49;;;;;;;5.10;1.43;;;;;;;22.05;52.23;100452.19;5071215;28;20186;-60
2023/09/13 05:56:20;;;;;;;8.60;1.10;;;;;;;22.23;52.85;100461.72;5062254;28;20052;-63
2023/09/13 05:58:50;;;;;;;4.10;0.90;;;;;;;22.43;52.88;100462.28;5071191;28;20151;-61
2023/09/13 06:01:22;;;;;;;2.70;1.40;;;;;;;22.45;53.56;100463.91;5060893;28;20051;-59
2023/09/13 06:03:54;;;;;;;5.70;1.30;;;;;;;22.51;54.14;100460.00;5071425;28;20065;-62
2023/09/13 06:06:25;;;;;;;2.27;0.73;;;;;;;22.43;51.84;100460.47;5059644;28;20056;-60
2023/09/13 06:08:57;;;;;;;3.93;1.33;;;;;;;22.34;51.81;100459.25;5072607;28;20056;-62
2023/09/13 06:11:28;;;;;;;7.13;1.63;;;;;;;22.16;51.61;100481.63;5062432;28;20057;-60
2023/09/13 06:13:58;;;;;;;2.20;1.27;;;;;;;22.15;54.69;100470.16;5071088;28;20040;-62
2023/09/13 06:16:30;;;;;;;2.77;0.80;;;;;;;22.26;54.44;100468.66;5060091;28;20135;-62
2023/09/13 06:19:02;;;;;;;2.60;0.70;;;;;;;22.30;52.54;100457.72;5069825;28;20475;-60
2023/09/13 06:21:32;;;;;;;4.93;0.93;;;;;;;22.16;52.40;100465.66;5061012;28;20051;-61
2023/09/13 06:24:03;;;;;;;5.80;1.00;;;;;;;22.24;53.46;100484.75;5071013;28;20505;-62
2023/09/13 06:26:34;;;;;;;5.67;1.10;;;;;;;22.37;54.25;100475.03;5059744;28;20048;-64
2023/09/13 06:29:05;;;;;;;3.13;1.07;;;;;;;22.29;53.76;100477.31;5059970;28;20042;-61
2023/09/13 06:31:36;;;;;;;3.33;0.80;;;;;;;22.00;53.70;100440.97;5071211;28;20055;-62
2023/09/13 06:34:17;;;;;;;5.77;1.70;;;;;;;22.24;54.80;100479.41;5060184;28;20067;-61
2023/09/13 06:36:55;;;;;;;6.80;1.10;;;;;;;22.24;54.15;100483.88;5070843;28;20768;-60
2023/09/13 06:39:26;;;;;;;5.83;1.20;;;;;;;22.16;54.18;100484.31;5060730;28;20127;-60
2023/09/13 06:41:57;;;;;;;3.23;1.30;;;;;;;22.13;55.31;100482.69;5071163;28;20501;-60
2023/09/13 06:44:28;;;;;;;7.50;1.37;;;;;;;22.15;57.94;100479.94;5060791;28;20180;-61
2023/09/13 06:47:14;;;;;;;7.10;1.10;;;;;;;22.14;57.22;100484.41;5061015;28;20229;-61
2023/09/13 06:49:48;;;;;;;8.23;1.47;;;;;;;22.12;57.04;100480.13;5071971;28;20052;-61
2023/09/13 06:52:20;;;;;;;5.63;1.00;;;;;;;22.20;57.83;100483.22;5059539;28;20059;-62
2023/09/13 06:54:53;;;;;;;3.20;1.20;;;;;;;22.19;58.30;100484.13;5069739;28;20113;-62
2023/09/13 06:57:27;;;;;;;3.73;1.10;;;;;;;22.09;57.79;100490.94;5060351;28;20043;-61
2023/09/13 07:00:03;;;;;;;2.53;0.97;;;;;;;21.92;57.82;100505.28;5070985;28;20716;-62
2023/09/13 07:02:37;;;;;;;4.33;1.10;;;;;;;21.90;58.79;100510.69;5060309;28;20070;-61
2023/09/13 07:05:12;;;;;;;3.27;1.53;;;;;;;21.83;59.67;100519.97;5059877;28;20130;-60
2023/09/13 07:07:46;;;;;;;4.17;0.90;;;;;;;21.80;60.45;100512.19;5069494;28;20055;-59
2023/09/13 07:10:16;;;;;;;4.00;0.97;;;;;;;21.71;60.69;100512.72;5060201;28;20536;-60
2023/09/13 07:12:47;;;;;;;4.13;1.20;;;;;;;21.66;61.74;100520.97;5069613;28;20040;-59
2023/09/13 07:15:18;;;;;;;7.20;1.37;;;;;;;21.46;61.73;100503.50;5059640;28;20040;-61
2023/09/13 07:17:49;;;;;;;6.27;1.10;;;;;;;21.09;61.97;100447.16;5069384;28;20054;-60
2023/09/13 07:20:21;;;;;;;5.30;1.20;;;;;;;21.44;61.87;100516.06;5058338;28;20154;-59
2023/09/13 07:22:52;;;;;;;10.53;1.57;;;;;;;21.44;63.43;100528.47;5069776;28;20531;-60
2023/09/13 07:25:22;;;;;;;7.90;1.23;;;;;;;21.39;65.06;100523.44;5059918;28;20080;-61
2023/09/13 07:27:53;;;;;;;4.03;1.47;;;;;;;21.24;65.74;100524.25;5068661;28;20504;-61
2023/09/13 07:30:23;;;;;;;7.33;1.50;;;;;;;21.15;67.13;100524.78;5061295;28;21505;-61
2023/09/13 07:32:54;;;;;;;7.33;1.57;;;;;;;21.08;67.66;100533.09;5071656;28;20130;-61
2023/09/13 07:35:26;;;;;;;4.77;1.27;;;;;;;21.08;68.65;100521.63;5059295;28;20089;-61
2023/09/13 07:37:56;;;;;;;5.43;1.10;;;;;;;21.08;69.23;100546.38;5069198;28;20895;-61
2023/09/13 07:40:28;;;;;;;6.23;1.30;;;;;;;20.88;70.23;100550.13;5056667;28;20274;-60
2023/09/13 07:42:59;;;;;;;5.83;1.27;;;;;;;20.63;71.37;100550.59;5069524;28;20051;-60
2023/09/13 07:45:33;;;;;;;3.43;1.03;;;;;;;20.45;71.70;100557.72;5057697;28;20452;-58
2023/09/13 07:48:04;;;;;;;2.90;1.13;;;;;;;20.36;71.13;100567.97;5059444;28;20383;-59
2023/09/13 07:50:40;;;;;;;6.30;1.37;;;;;;;20.38;72.23;100555.47;5071313;28;20393;-60
2023/09/13 07:53:11;;;;;;;5.77;1.50;;;;;;;20.46;73.30;100561.22;5059632;28;20281;-61
2023/09/13 07:55:42;;;;;;;9.77;1.40;;;;;;;20.36;73.82;100554.69;5069507;28;20051;-60
2023/09/13 07:58:13;;;;;;;4.60;1.40;;;;;;;20.30;72.92;100557.69;5058404;28;20403;-59
2023/09/13 08:00:45;;;;;;;7.20;1.37;;;;;;;20.25;74.25;100550.81;5070704;28;20293;-60
2023/09/13 08:03:16;;;;;;;5.93;1.10;;;;;;;20.15;74.38;100562.84;5058647;28;20849;-60
2023/09/13 08:05:49;;;;;;;3.57;1.13;;;;;;;19.91;75.79;100566.72;5074333;28;20266;-60
2023/09/13 08:08:22;;;;;;;8.13;1.10;;;;;;;19.70;76.75;100555.41;5063350;28;20300;-59
2023/09/13 08:10:53;;;;;;;9.50;1.30;;;;;;;19.08;77.74;100496.56;5073442;28;20313;-61
2023/09/13 08:13:24;;;;;;;9.97;2.17;;;;;;;19.37;78.96;100559.59;5063020;28;20274;-60
2023/09/13 08:15:55;;;;;;;8.87;1.20;;;;;;;19.33;80.23;100560.69;5073172;28;20361;-61
2023/09/13 08:18:25;;;;;;;3.93;1.23;;;;;;;19.23;80.35;100559.41;5062780;28;20731;-59
2023/09/13 08:20:57;;;;;;;3.47;1.07;;;;;;;19.12;80.04;100545.78;5073864;28;20363;-59
2023/09/13 08:23:28;;;;;;;6.17;1.20;;;;;;;19.00;80.35;100541.09;5062206;28;20729;-61
2023/09/13 08:25:59;;;;;;;8.23;1.53;;;;;;;18.85;80.19;100526.78;5072489;28;20296;-61
2023/09/13 08:28:49;;;;;;;4.43;1.00;;;;;;;18.85;81.38;100550.63;5069211;28;20744;-61
2023/09/13 08:31:23;;;;;;;6.33;1.20;;;;;;;18.74;81.91;100551.06;5063123;28;20344;-61
2023/09/13 08:33:54;;;;;;;3.57;1.10;;;;;;;18.55;81.40;100545.75;5073284;28;20798;-60
2023/09/13 08:36:27;;;;;;;5.43;1.20;;;;;;;18.32;81.39;100544.09;5063002;28;20372;-60
2023/09/13 08:38:58;;;;;;;3.77;1.10;;;;;;;18.15;82.19;100541.38;5073560;28;20813;-61
2023/09/13 08:41:30;;;;;;;7.23;1.20;;;;;;;17.98;83.63;100545.59;5062751;28;20364;-61
2023/09/13 08:44:04;;;;;;;5.33;1.50;;;;;;;17.76;84.70;100534.16;5072765;28;20752;-60
2023/09/13 08:46:37;;;;;;;7.27;1.70;;;;;;;17.57;86.60;100545.50;5059763;28;20361;-61
2023/09/13 08:49:16;;;;;;;5.67;1.40;;;;;;;17.28;88.92;100548.47;5063349;28;20302;-61
2023/09/13 08:51:58;;;;;;;10.80;1.47;;;;;;;16.99;91.46;100543.38;5072999;28;20286;-60
2023/09/13 08:54:34;;;;;;;7.90;1.37;;;;;;;16.81;92.88;100554.63;5062272;28;20371;-61
2023/09/13 08:57:26;;;;;;;3.90;1.10;;;;;;;16.61;94.11;100542.16;5061124;28;20274;-61
2023/09/13 08:59:56;;;;;;;7.37;1.53;;;;;;;16.64;93.97;100557.88;5072282;28;20335;-60
2023/09/13 09:02:37;;;;;;;9.23;1.43;;;;;;;16.58;92.79;100548.41;5061218;28;20282;-61
2023/09/13 09:05:16;;;;;;;5.43;1.83;;;;;;;16.41;92.83;100534.13;5063841;28;20386;-61
2023/09/13 09:07:52;;;;;;;5.70;1.30;;;;;;;16.37;92.81;100555.34;5071888;28;20274;-60
2023/09/13 09:10:23;;;;;;;6.57;1.47;;;;;;;16.19;92.55;100555.97;5061496;28;20291;-60
2023/09/13 09:13:57;;;;;;;6.20;1.30;;;;;;;16.24;92.89;100564.56;5071548;28;20558;-61
2023/09/13 09:16:54;;;;;;;5.45;1.17;;;;;;;16.25;93.02;100561.03;4952848;28;20284;-61
2023/09/13 09:19:26;;;;;;;2.83;1.13;;;;;;;16.22;92.44;100555.84;4979457;28;20060;-60
2023/09/13 09:21:59;;;;;;;4.13;1.17;;;;;;;16.08;92.15;100547.56;4989264;28;20796;-61
2023/09/13 09:24:33;;;;;;;6.63;1.53;;;;;;;15.99;93.35;100564.56;4979203;28;20277;-60
2023/09/13 09:27:05;;;;;;;4.13;1.40;;;;;;;15.90;93.87;100564.84;4981177;28;20315;-60
2023/09/13 09:29:39;;;;;;;4.73;1.30;;;;;;;15.72;95.09;100568.97;4989326;28;20297;-60
2023/09/13 09:32:14;;;;;;;5.07;1.40;;;;;;;15.56;95.84;100560.69;4979727;28;20653;-60
2023/09/13 09:34:45;;;;;;;5.00;1.40;;;;;;;15.64;96.99;100578.88;4989272;28;20295;-61
2023/09/13 09:37:18;;;;;;;3.47;1.27;;;;;;;15.61;96.75;100564.03;4978602;28;20323;-60
2023/09/13 09:39:51;;;;;;;3.83;1.30;;;;;;;15.56;97.09;100570.34;4988208;28;20285;-60
2023/09/13 09:42:23;;;;;;;9.43;1.47;;;;;;;15.21;97.51;100527.56;4981013;28;20281;-60
2023/09/13 09:44:55;;;;;;;3.33;1.10;;;;;;;15.25;97.90;100534.44;4989393;28;20326;-60
2023/09/13 09:47:26;;;;;;;5.83;1.27;;;;;;;15.54;97.50;100579.16;4980254;28;20287;-61
2023/09/13 09:49:58;;;;;;;8.50;1.20;;;;;;;15.39;97.25;100548.03;4987659;28;20284;-60
2023/09/13 09:52:34;;;;;;;7.03;1.37;;;;;;;15.51;98.23;100568.72;4978285;28;20775;-60
2023/09/13 09:55:08;;;;;;;9.40;1.87;;;;;;;15.69;98.20;100592.75;5047235;28;20298;-61
2023/09/13 09:57:46;;;;;;;8.13;1.60;;;;;;;15.59;98.59;100575.53;5071521;28;20286;-60
2023/09/13 10:00:22;;;;;;;6.03;1.53;;;;;;;15.30;99.35;100543.94;5060871;28;20294;-60
2023/09/13 10:02:53;;;;;;;6.63;2.30;;;;;;;15.58;100.00;100600.16;5070079;28;20305;-61
2023/09/13 10:05:25;;;;;;;7.17;2.20;;;;;;;15.43;99.99;100596.22;5061049;28;20328;-59
2023/09/13 10:07:58;;;;;;;11.30;2.00;;;;;;;15.48;100.00;100610.09;5070309;28;20293;-61
2023/09/13 10:10:35;;;;;;;11.43;1.93;;;;;;;15.34;100.00;100597.34;5060337;28;20289;-60
2023/09/13 10:13:07;;;;;;;5.47;1.70;;;;;;;15.43;100.00;100607.63;5060476;28;20288;-62
2023/09/13 10:15:39;;;;;;;9.03;1.80;;;;;;;15.40;100.00;100623.50;5072071;28;20359;-63
2023/09/13 10:18:13;;;;;;;8.10;1.73;;;;;;;15.29;100.00;100609.78;5058282;28;20367;-59
2023/09/13 10:20:46;;;;;;;8.80;1.60;;;;;;;15.16;100.00;100592.66;5071689;28;20290;-61
2023/09/13 10:23:22;;;;;;;7.13;1.60;;;;;;;15.33;100.00;100643.03;5059990;28;20286;-61
2023/09/13 10:25:55;;;;;;;4.50;1.40;;;;;;;15.27;100.00;100633.53;5070022;28;20289;-60
2023/09/13 10:28:31;;;;;;;4.90;1.43;;;;;;;15.19;100.00;100629.41;5058147;28;20282;-61
2023/09/13 10:31:05;;;;;;;5.40;1.43;;;;;;;15.16;100.00;100643.53;5066386;28;20667;-60
2023/09/13 10:33:41;;;;;;;9.57;1.70;;;;;;;15.08;100.00;100649.00;5069330;28;20429;-60
2023/09/13 10:36:22;;;;;;;5.47;1.53;;;;;;;15.04;100.00;100652.63;5060827;28;20284;-60
2023/09/13 10:39:09;;;;;;;5.77;1.63;;;;;;;14.69;100.00;100610.69;5070222;28;20289;-61
2023/09/13 10:41:53;;;;;;;5.10;1.30;;;;;;;14.79;100.00;100638.44;5060650;28;20596;-60
2023/09/13 10:44:25;;;;;;;18.07;2.53;;;;;;;14.86;100.00;100658.41;5060088;28;20284;-61
2023/09/13 10:46:58;;;;;;;8.50;1.63;;;;;;;14.63;100.00;100636.25;5069737;28;20637;-61
2023/09/13 10:49:30;;;;;;;6.90;2.30;;;;;;;14.73;100.00;100659.69;5059192;28;20796;-61
2023/09/13 10:52:03;;;;;;;4.10;1.20;;;;;;;14.65;100.00;100663.38;5070686;28;20270;-60
2023/09/13 10:54:36;;;;;;;12.80;1.33;;;;;;;14.55;100.00;100659.25;5059757;28;20296;-60
2023/09/13 10:57:10;;;;;;;5.80;1.33;;;;;;;14.45;100.00;100657.72;5058779;28;20372;-59
2023/09/13 10:59:43;;;;;;;7.53;1.50;;;;;;;14.18;100.00;100622.53;5069477;28;20333;-59
2023/09/13 11:02:14;;;;;;;5.77;1.33;;;;;;;14.37;100.00;100671.06;5059419;28;20285;-60
2023/09/13 11:04:47;;;;;;;7.70;1.40;;;;;;;14.22;100.00;100650.44;5070360;28;20278;-59
2023/09/13 11:07:21;;;;;;;3.97;1.37;;;;;;;14.33;100.00;100673.84;5058312;28;20369;-62
2023/09/13 11:09:53;;;;;;;9.90;2.13;;;;;;;14.32;100.00;100672.09;5069585;28;20290;-61
2023/09/13 11:12:29;;;;;;;5.33;1.20;;;;;;;14.23;100.00;100663.53;5059679;28;20301;-61
2023/09/13 11:15:14;;;;;;;3.43;1.20;;;;;;;14.19;100.00;100682.91;5072748;28;20365;-62
2023/09/13 11:17:45;;;;;;;4.77;1.20;;;;;;;14.20;100.00;100695.16;5070311;28;20993;-61
2023/09/13 11:20:29;;;;;;;7.73;1.63;;;;;;;14.18;100.00;100691.69;5060565;28;20617;-61
2023/09/13 11:23:08;;;;;;;3.57;0.90;;;;;;;13.91;100.00;100660.84;5069841;28;20359;-62
2023/09/13 11:26:04;;;;;;;;;;;;;;;14.13;100.00;100690.09;5070635;28;20308;-62
2023/09/13 11:28:48;;;;;;;7.93;1.27;;;;;;;13.84;100.00;100659.25;5060483;28;20332;-60
2023/09/13 11:31:22;;;;;;;8.17;1.20;;;;;;;14.01;100.00;100688.63;5058373;28;20357;-62
2023/09/13 11:33:58;;;;;;;6.00;1.20;;;;;;;13.96;100.00;100685.25;5070235;28;20600;-59
2023/09/13 11:36:31;;;;;;;6.40;1.73;;;;;;;13.94;100.00;100692.28;5059116;28;20277;-61
2023/09/13 11:39:05;;;;;;;4.07;1.50;;;;;;;13.69;100.00;100656.06;5069737;28;20755;-60
2023/09/13 11:41:40;;;;;;;3.83;1.10;;;;;;;13.87;100.00;100695.94;5069532;28;20290;-61
2023/09/13 11:44:26;;;;;;;2.70;1.30;;;;;;;13.76;100.00;100689.19;5059936;28;22295;-61
2023/09/13 11:47:03;;;;;;;;;;;;;;;13.64;100.00;100702.59;5069147;28;20781;-61
2023/09/13 11:49:42;;;;;;;4.33;1.40;;;;;;;13.37;100.00;100694.38;5072771;28;19928;-61
2023/09/13 11:53:18;;;;;;;8.23;1.43;;;;;;;13.30;100.00;100699.81;5060445;28;20831;-61
2023/09/13 11:55:54;;;;;;;5.60;1.30;;;;;;;13.16;100.00;100692.19;5069796;28;20297;-60